sensor_id;sensor_type;location;lat;lon;timestamp;temperature;humidity
18444;DHT22;9350;53.176;8.194;2023-04-05T00:02:23;2.90;99.90
18444;DHT22;9350;53.176;8.194;2023-04-05T00:04:54;2.80;99.90
18444;DHT22;9350;53.176;8.194;2023-04-05T00:07:23;2.80;99.90
18444;DHT22;9350;53.176;8.194;2023-04-05T00:09:51;2.90;99.90
18444;DHT22;9350;53.176;8.194;2023-04-05T00:12:17;2.70;99.90
18444;DHT22;9350;53.176;8.194;2023-04-05T00:14:44;2.70;99.90
18444;DHT22;9350;53.176;8.194;2023-04-05T00:17:11;2.70;99.90
18444;DHT22;9350;53.176;8.194;2023-04-05T00:19:37;2.70;99.90
18444;DHT22;9350;53.176;8.194;2023-04-05T00:22:04;2.70;99.90
18444;DHT22;9350;53.176;8.194;2023-04-05T00:24:37;2.60;99.90
18444;DHT22;9350;53.176;8.194;2023-04-05T00:27:06;2.50;99.90
18444;DHT22;9350;53.176;8.194;2023-04-05T00:29:33;2.50;99.90
18444;DHT22;9350;53.176;8.194;2023-04-05T00:32:00;2.50;99.90
18444;DHT22;9350;53.176;8.194;2023-04-05T00:34:26;2.40;99.90
18444;DHT22;9350;53.176;8.194;2023-04-05T00:36:53;2.50;99.90
18444;DHT22;9350;53.176;8.194;2023-04-05T00:39:20;2.60;99.90
18444;DHT22;9350;53.176;8.194;2023-04-05T00:41:48;2.40;99.90
18444;DHT22;9350;53.176;8.194;2023-04-05T00:44:15;2.50;99.90
18444;DHT22;9350;53.176;8.194;2023-04-05T00:46:42;2.40;99.90
18444;DHT22;9350;53.176;8.194;2023-04-05T00:49:08;2.50;99.90
18444;DHT22;9350;53.176;8.194;2023-04-05T00:51:36;2.40;99.90
18444;DHT22;9350;53.176;8.194;2023-04-05T00:54:03;2.40;99.90
18444;DHT22;9350;53.176;8.194;2023-04-05T00:56:31;2.30;99.90
18444;DHT22;9350;53.176;8.194;2023-04-05T00:58:59;2.30;99.90
18444;DHT22;9350;53.176;8.194;2023-04-05T01:01:27;2.30;99.90
18444;DHT22;9350;53.176;8.194;2023-04-05T01:03:58;2.30;99.90
18444;DHT22;9350;53.176;8.194;2023-04-05T01:06:47;2.30;99.90
18444;DHT22;9350;53.176;8.194;2023-04-05T01:09:28;2.30;99.90
18444;DHT22;9350;53.176;8.194;2023-04-05T01:12:00;2.20;99.90
18444;DHT22;9350;53.176;8.194;2023-04-05T01:14:29;2.30;99.90
18444;DHT22;9350;53.176;8.194;2023-04-05T01:16:56;2.40;99.90
18444;DHT22;9350;53.176;8.194;2023-04-05T01:19:25;2.20;99.90
18444;DHT22;9350;53.176;8.194;2023-04-05T01:22:17;2.20;99.90
18444;DHT22;9350;53.176;8.194;2023-04-05T01:25:09;2.10;99.90
18444;DHT22;9350;53.176;8.194;2023-04-05T01:28:02;2.20;99.90
18444;DHT22;9350;53.176;8.194;2023-04-05T01:30:35;2.20;99.90
18444;DHT22;9350;53.176;8.194;2023-04-05T01:33:09;2.10;99.90
18444;DHT22;9350;53.176;8.194;2023-04-05T01:35:42;2.10;99.90
18444;DHT22;9350;53.176;8.194;2023-04-05T01:38:17;2.10;99.90
18444;DHT22;9350;53.176;8.194;2023-04-05T01:40:44;2.10;99.90
18444;DHT22;9350;53.176;8.194;2023-04-05T01:43:12;2.00;99.90
18444;DHT22;9350;53.176;8.194;2023-04-05T01:45:40;2.10;99.90
18444;DHT22;9350;53.176;8.194;2023-04-05T01:48:07;2.10;99.90
18444;DHT22;9350;53.176;8.194;2023-04-05T01:50:34;2.00;99.90
18444;DHT22;9350;53.176;8.194;2023-04-05T01:53:00;2.00;99.90
18444;DHT22;9350;53.176;8.194;2023-04-05T01:55:27;2.00;99.90
18444;DHT22;9350;53.176;8.194;2023-04-05T01:57:56;2.10;99.90
18444;DHT22;9350;53.176;8.194;2023-04-05T02:00:23;2.00;99.90
18444;DHT22;9350;53.176;8.194;2023-04-05T02:02:51;2.00;99.90
18444;DHT22;9350;53.176;8.194;2023-04-05T02:05:18;2.00;99.90
18444;DHT22;9350;53.176;8.194;2023-04-05T02:07:44;1.90;99.90
18444;DHT22;9350;53.176;8.194;2023-04-05T02:10:11;1.90;99.90
18444;DHT22;9350;53.176;8.194;2023-04-05T02:12:38;1.90;99.90
18444;DHT22;9350;53.176;8.194;2023-04-05T02:15:06;2.00;99.90
18444;DHT22;9350;53.176;8.194;2023-04-05T02:17:33;1.80;99.90
18444;DHT22;9350;53.176;8.194;2023-04-05T02:20:06;1.90;99.90
18444;DHT22;9350;53.176;8.194;2023-04-05T02:22:33;1.90;99.90
18444;DHT22;9350;53.176;8.194;2023-04-05T02:25:01;1.90;99.90
18444;DHT22;9350;53.176;8.194;2023-04-05T02:27:28;1.80;99.90
18444;DHT22;9350;53.176;8.194;2023-04-05T02:29:55;1.90;99.90
18444;DHT22;9350;53.176;8.194;2023-04-05T02:32:22;1.80;99.90
18444;DHT22;9350;53.176;8.194;2023-04-05T02:34:48;1.80;99.90
18444;DHT22;9350;53.176;8.194;2023-04-05T02:37:18;1.80;99.90
18444;DHT22;9350;53.176;8.194;2023-04-05T02:39:44;1.80;99.90
18444;DHT22;9350;53.176;8.194;2023-04-05T02:42:11;1.80;99.90
18444;DHT22;9350;53.176;8.194;2023-04-05T02:44:38;1.80;99.90
18444;DHT22;9350;53.176;8.194;2023-04-05T02:47:05;1.70;99.90
18444;DHT22;9350;53.176;8.194;2023-04-05T02:49:31;1.70;99.90
18444;DHT22;9350;53.176;8.194;2023-04-05T02:51:58;1.70;99.90
18444;DHT22;9350;53.176;8.194;2023-04-05T02:54:26;1.70;99.90
18444;DHT22;9350;53.176;8.194;2023-04-05T02:56:53;1.70;99.90
18444;DHT22;9350;53.176;8.194;2023-04-05T02:59:22;1.60;99.90
18444;DHT22;9350;53.176;8.194;2023-04-05T03:01:50;1.60;99.90
18444;DHT22;9350;53.176;8.194;2023-04-05T03:04:17;1.60;99.90
18444;DHT22;9350;53.176;8.194;2023-04-05T03:06:43;1.60;99.90
18444;DHT22;9350;53.176;8.194;2023-04-05T03:09:13;1.60;99.90
18444;DHT22;9350;53.176;8.194;2023-04-05T03:11:41;1.60;99.90
18444;DHT22;9350;53.176;8.194;2023-04-05T03:14:08;1.50;99.90
18444;DHT22;9350;53.176;8.194;2023-04-05T03:16:36;1.50;99.90
18444;DHT22;9350;53.176;8.194;2023-04-05T03:19:04;1.50;99.90
18444;DHT22;9350;53.176;8.194;2023-04-05T03:21:31;1.40;99.90
18444;DHT22;9350;53.176;8.194;2023-04-05T03:23:59;1.50;99.90
18444;DHT22;9350;53.176;8.194;2023-04-05T03:26:26;1.50;99.90
18444;DHT22;9350;53.176;8.194;2023-04-05T03:28:54;1.50;99.90
18444;DHT22;9350;53.176;8.194;2023-04-05T03:31:21;1.40;99.90
18444;DHT22;9350;53.176;8.194;2023-04-05T03:33:47;1.50;99.90
18444;DHT22;9350;53.176;8.194;2023-04-05T03:36:14;1.50;99.90
18444;DHT22;9350;53.176;8.194;2023-04-05T03:38:43;1.40;99.90
18444;DHT22;9350;53.176;8.194;2023-04-05T03:41:10;1.40;99.90
18444;DHT22;9350;53.176;8.194;2023-04-05T03:43:36;1.40;99.90
18444;DHT22;9350;53.176;8.194;2023-04-05T03:46:05;1.40;99.90
18444;DHT22;9350;53.176;8.194;2023-04-05T03:48:31;1.40;99.90
18444;DHT22;9350;53.176;8.194;2023-04-05T03:50:58;1.40;99.90
18444;DHT22;9350;53.176;8.194;2023-04-05T03:53:25;1.40;99.90
18444;DHT22;9350;53.176;8.194;2023-04-05T03:55:53;1.40;99.90
18444;DHT22;9350;53.176;8.194;2023-04-05T03:58:20;1.30;99.90
18444;DHT22;9350;53.176;8.194;2023-04-05T04:00:47;1.40;99.90
18444;DHT22;9350;53.176;8.194;2023-04-05T04:03:16;1.40;99.90
18444;DHT22;9350;53.176;8.194;2023-04-05T04:05:43;1.30;99.90
18444;DHT22;9350;53.176;8.194;2023-04-05T04:08:10;1.30;99.90
18444;DHT22;9350;53.176;8.194;2023-04-05T04:10:38;1.30;99.90
18444;DHT22;9350;53.176;8.194;2023-04-05T04:13:04;1.20;99.90
18444;DHT22;9350;53.176;8.194;2023-04-05T04:15:31;1.20;99.90
18444;DHT22;9350;53.176;8.194;2023-04-05T04:17:58;1.30;99.90
18444;DHT22;9350;53.176;8.194;2023-04-05T04:20:26;1.30;99.90
18444;DHT22;9350;53.176;8.194;2023-04-05T04:22:52;1.20;99.90
18444;DHT22;9350;53.176;8.194;2023-04-05T04:25:19;1.20;99.90
18444;DHT22;9350;53.176;8.194;2023-04-05T04:27:46;1.20;99.90
18444;DHT22;9350;53.176;8.194;2023-04-05T04:30:15;1.20;99.90
18444;DHT22;9350;53.176;8.194;2023-04-05T04:32:42;1.30;99.90
18444;DHT22;9350;53.176;8.194;2023-04-05T04:35:24;1.20;99.90
18444;DHT22;9350;53.176;8.194;2023-04-05T04:37:54;1.20;99.90
18444;DHT22;9350;53.176;8.194;2023-04-05T04:40:23;1.20;99.90
18444;DHT22;9350;53.176;8.194;2023-04-05T04:42:51;1.10;99.90
18444;DHT22;9350;53.176;8.194;2023-04-05T04:45:18;1.10;99.90
18444;DHT22;9350;53.176;8.194;2023-04-05T04:47:47;1.10;99.90
18444;DHT22;9350;53.176;8.194;2023-04-05T04:50:14;1.10;99.90
18444;DHT22;9350;53.176;8.194;2023-04-05T04:52:43;1.10;99.90
18444;DHT22;9350;53.176;8.194;2023-04-05T04:55:12;1.10;99.90
18444;DHT22;9350;53.176;8.194;2023-04-05T04:57:39;1.00;99.90
18444;DHT22;9350;53.176;8.194;2023-04-05T05:00:07;1.00;99.90
18444;DHT22;9350;53.176;8.194;2023-04-05T05:02:37;1.00;99.90
18444;DHT22;9350;53.176;8.194;2023-04-05T05:05:05;1.00;99.90
18444;DHT22;9350;53.176;8.194;2023-04-05T05:07:32;1.00;99.90
18444;DHT22;9350;53.176;8.194;2023-04-05T05:09:59;1.10;99.90
18444;DHT22;9350;53.176;8.194;2023-04-05T05:12:27;1.20;99.90
18444;DHT22;9350;53.176;8.194;2023-04-05T05:14:54;1.00;99.90
18444;DHT22;9350;53.176;8.194;2023-04-05T05:17:21;1.10;99.90
18444;DHT22;9350;53.176;8.194;2023-04-05T05:19:48;1.10;99.90
18444;DHT22;9350;53.176;8.194;2023-04-05T05:22:15;1.10;99.90
18444;DHT22;9350;53.176;8.194;2023-04-05T05:24:42;1.10;99.90
18444;DHT22;9350;53.176;8.194;2023-04-05T05:27:08;1.10;99.90
18444;DHT22;9350;53.176;8.194;2023-04-05T05:29:36;1.10;99.90
18444;DHT22;9350;53.176;8.194;2023-04-05T05:32:03;1.00;99.90
18444;DHT22;9350;53.176;8.194;2023-04-05T05:34:31;1.10;99.90
18444;DHT22;9350;53.176;8.194;2023-04-05T05:36:59;1.10;99.90
18444;DHT22;9350;53.176;8.194;2023-04-05T05:39:26;1.20;99.90
18444;DHT22;9350;53.176;8.194;2023-04-05T05:41:52;1.10;99.90
18444;DHT22;9350;53.176;8.194;2023-04-05T05:44:19;1.10;99.90
18444;DHT22;9350;53.176;8.194;2023-04-05T05:46:47;1.20;99.90
18444;DHT22;9350;53.176;8.194;2023-04-05T05:49:14;1.10;99.90
18444;DHT22;9350;53.176;8.194;2023-04-05T05:51:40;1.20;99.90
18444;DHT22;9350;53.176;8.194;2023-04-05T05:54:07;1.20;99.90
18444;DHT22;9350;53.176;8.194;2023-04-05T05:56:34;1.20;99.90
18444;DHT22;9350;53.176;8.194;2023-04-05T05:59:00;1.20;99.90
18444;DHT22;9350;53.176;8.194;2023-04-05T06:01:27;1.30;99.90
18444;DHT22;9350;53.176;8.194;2023-04-05T06:03:55;1.30;99.90
18444;DHT22;9350;53.176;8.194;2023-04-05T06:06:22;1.40;99.90
18444;DHT22;9350;53.176;8.194;2023-04-05T06:08:49;1.30;99.90
18444;DHT22;9350;53.176;8.194;2023-04-05T06:11:17;1.50;99.90
18444;DHT22;9350;53.176;8.194;2023-04-05T06:13:44;1.50;99.90
18444;DHT22;9350;53.176;8.194;2023-04-05T06:16:10;1.60;99.90
18444;DHT22;9350;53.176;8.194;2023-04-05T06:18:37;1.60;99.90
18444;DHT22;9350;53.176;8.194;2023-04-05T06:21:05;1.70;99.90
18444;DHT22;9350;53.176;8.194;2023-04-05T06:23:32;1.70;99.90
18444;DHT22;9350;53.176;8.194;2023-04-05T06:25:58;1.90;99.90
18444;DHT22;9350;53.176;8.194;2023-04-05T06:28:25;2.00;99.90
18444;DHT22;9350;53.176;8.194;2023-04-05T06:30:52;2.00;99.90
18444;DHT22;9350;53.176;8.194;2023-04-05T06:33:19;2.00;99.90
18444;DHT22;9350;53.176;8.194;2023-04-05T06:35:46;2.10;99.90
18444;DHT22;9350;53.176;8.194;2023-04-05T06:38:14;2.20;99.90
18444;DHT22;9350;53.176;8.194;2023-04-05T06:40:41;2.30;99.90
18444;DHT22;9350;53.176;8.194;2023-04-05T06:43:08;2.40;99.90
18444;DHT22;9350;53.176;8.194;2023-04-05T06:45:35;2.50;99.90
18444;DHT22;9350;53.176;8.194;2023-04-05T06:48:02;2.50;99.90
18444;DHT22;9350;53.176;8.194;2023-04-05T06:50:29;2.60;99.90
18444;DHT22;9350;53.176;8.194;2023-04-05T06:52:55;2.70;99.90
18444;DHT22;9350;53.176;8.194;2023-04-05T06:55:23;2.70;99.90
18444;DHT22;9350;53.176;8.194;2023-04-05T06:57:50;2.80;99.90
18444;DHT22;9350;53.176;8.194;2023-04-05T07:00:17;2.80;99.90
18444;DHT22;9350;53.176;8.194;2023-04-05T07:02:45;2.90;99.90
18444;DHT22;9350;53.176;8.194;2023-04-05T07:05:11;2.90;99.90
18444;DHT22;9350;53.176;8.194;2023-04-05T07:07:38;3.00;99.90
18444;DHT22;9350;53.176;8.194;2023-04-05T07:10:07;3.20;99.90
18444;DHT22;9350;53.176;8.194;2023-04-05T07:12:36;3.20;99.90
18444;DHT22;9350;53.176;8.194;2023-04-05T07:15:03;3.20;99.90
18444;DHT22;9350;53.176;8.194;2023-04-05T07:17:30;3.30;99.90
18444;DHT22;9350;53.176;8.194;2023-04-05T07:19:57;3.30;99.90
18444;DHT22;9350;53.176;8.194;2023-04-05T07:22:24;3.40;99.90
18444;DHT22;9350;53.176;8.194;2023-04-05T07:24:51;3.40;99.90
18444;DHT22;9350;53.176;8.194;2023-04-05T07:27:19;3.40;99.90
18444;DHT22;9350;53.176;8.194;2023-04-05T07:29:48;3.40;99.90
18444;DHT22;9350;53.176;8.194;2023-04-05T07:32:15;3.50;99.90
18444;DHT22;9350;53.176;8.194;2023-04-05T07:34:42;3.50;99.90
18444;DHT22;9350;53.176;8.194;2023-04-05T07:37:08;3.50;99.90
18444;DHT22;9350;53.176;8.194;2023-04-05T07:39:35;3.60;99.90
18444;DHT22;9350;53.176;8.194;2023-04-05T07:42:02;3.70;99.90
18444;DHT22;9350;53.176;8.194;2023-04-05T07:44:29;3.70;99.90
18444;DHT22;9350;53.176;8.194;2023-04-05T07:46:57;3.80;99.90
18444;DHT22;9350;53.176;8.194;2023-04-05T07:49:24;3.90;99.90
18444;DHT22;9350;53.176;8.194;2023-04-05T07:51:53;3.90;99.90
18444;DHT22;9350;53.176;8.194;2023-04-05T07:54:20;3.90;99.90
18444;DHT22;9350;53.176;8.194;2023-04-05T07:56:47;4.00;99.90
18444;DHT22;9350;53.176;8.194;2023-04-05T07:59:15;4.10;99.90
18444;DHT22;9350;53.176;8.194;2023-04-05T08:01:41;4.10;99.90
18444;DHT22;9350;53.176;8.194;2023-04-05T08:04:09;4.10;99.90
18444;DHT22;9350;53.176;8.194;2023-04-05T08:06:36;4.20;99.90
18444;DHT22;9350;53.176;8.194;2023-04-05T08:09:04;4.20;99.90
18444;DHT22;9350;53.176;8.194;2023-04-05T08:11:31;4.30;99.90
18444;DHT22;9350;53.176;8.194;2023-04-05T08:13:57;4.30;99.90
18444;DHT22;9350;53.176;8.194;2023-04-05T08:16:24;4.30;99.90
18444;DHT22;9350;53.176;8.194;2023-04-05T08:18:51;4.40;99.90
18444;DHT22;9350;53.176;8.194;2023-04-05T08:21:19;4.40;99.90
18444;DHT22;9350;53.176;8.194;2023-04-05T08:23:46;4.60;99.90
18444;DHT22;9350;53.176;8.194;2023-04-05T08:26:14;4.60;99.90
18444;DHT22;9350;53.176;8.194;2023-04-05T08:28:41;4.60;99.90
18444;DHT22;9350;53.176;8.194;2023-04-05T08:31:08;4.60;99.90
18444;DHT22;9350;53.176;8.194;2023-04-05T08:33:34;4.70;99.90
18444;DHT22;9350;53.176;8.194;2023-04-05T08:36:04;4.80;99.90
18444;DHT22;9350;53.176;8.194;2023-04-05T08:38:33;4.80;99.90
18444;DHT22;9350;53.176;8.194;2023-04-05T08:41:06;4.90;99.90
18444;DHT22;9350;53.176;8.194;2023-04-05T08:43:43;4.90;99.90
18444;DHT22;9350;53.176;8.194;2023-04-05T08:46:13;4.90;99.90
18444;DHT22;9350;53.176;8.194;2023-04-05T08:48:41;5.00;99.90
18444;DHT22;9350;53.176;8.194;2023-04-05T08:51:08;5.00;99.90
18444;DHT22;9350;53.176;8.194;2023-04-05T08:53:36;5.10;99.90
18444;DHT22;9350;53.176;8.194;2023-04-05T08:56:03;5.10;99.90
18444;DHT22;9350;53.176;8.194;2023-04-05T08:58:30;5.20;99.90
18444;DHT22;9350;53.176;8.194;2023-04-05T09:01:00;5.20;99.90
18444;DHT22;9350;53.176;8.194;2023-04-05T09:03:30;5.30;99.90
18444;DHT22;9350;53.176;8.194;2023-04-05T09:05:58;5.40;99.90
18444;DHT22;9350;53.176;8.194;2023-04-05T09:08:25;5.40;99.90
18444;DHT22;9350;53.176;8.194;2023-04-05T09:10:54;5.50;99.90
18444;DHT22;9350;53.176;8.194;2023-04-05T09:13:20;5.50;99.90
18444;DHT22;9350;53.176;8.194;2023-04-05T09:15:47;5.50;99.90
18444;DHT22;9350;53.176;8.194;2023-04-05T09:18:14;5.60;99.90
18444;DHT22;9350;53.176;8.194;2023-04-05T09:20:41;5.80;99.90
18444;DHT22;9350;53.176;8.194;2023-04-05T09:23:08;5.70;99.90
18444;DHT22;9350;53.176;8.194;2023-04-05T09:25:36;5.80;99.90
18444;DHT22;9350;53.176;8.194;2023-04-05T09:28:06;5.90;99.90
18444;DHT22;9350;53.176;8.194;2023-04-05T09:30:33;6.00;99.90
18444;DHT22;9350;53.176;8.194;2023-04-05T09:33:01;6.00;99.90
18444;DHT22;9350;53.176;8.194;2023-04-05T09:35:29;6.00;99.90
18444;DHT22;9350;53.176;8.194;2023-04-05T09:37:57;6.00;99.90
18444;DHT22;9350;53.176;8.194;2023-04-05T09:40:39;6.00;99.90
18444;DHT22;9350;53.176;8.194;2023-04-05T09:43:08;6.10;99.90
18444;DHT22;9350;53.176;8.194;2023-04-05T09:45:38;6.10;99.90
18444;DHT22;9350;53.176;8.194;2023-04-05T09:48:06;6.20;99.90
18444;DHT22;9350;53.176;8.194;2023-04-05T09:50:33;6.30;99.90
18444;DHT22;9350;53.176;8.194;2023-04-05T09:53:07;6.20;99.90
18444;DHT22;9350;53.176;8.194;2023-04-05T09:55:35;6.30;99.90
18444;DHT22;9350;53.176;8.194;2023-04-05T09:58:02;6.40;99.90
18444;DHT22;9350;53.176;8.194;2023-04-05T10:00:30;6.50;99.90
18444;DHT22;9350;53.176;8.194;2023-04-05T10:02:57;6.50;99.90
18444;DHT22;9350;53.176;8.194;2023-04-05T10:05:26;6.60;99.90
18444;DHT22;9350;53.176;8.194;2023-04-05T10:07:54;6.60;99.90
18444;DHT22;9350;53.176;8.194;2023-04-05T10:10:22;6.60;99.90
18444;DHT22;9350;53.176;8.194;2023-04-05T10:12:49;6.60;99.90
18444;DHT22;9350;53.176;8.194;2023-04-05T10:15:16;6.80;99.90
18444;DHT22;9350;53.176;8.194;2023-04-05T10:17:51;6.90;99.90
18444;DHT22;9350;53.176;8.194;2023-04-05T10:20:20;7.00;99.90
18444;DHT22;9350;53.176;8.194;2023-04-05T10:22:55;7.00;99.90
18444;DHT22;9350;53.176;8.194;2023-04-05T10:25:26;7.00;99.90
18444;DHT22;9350;53.176;8.194;2023-04-05T10:27:54;7.00;99.90
18444;DHT22;9350;53.176;8.194;2023-04-05T10:30:23;7.10;99.90
18444;DHT22;9350;53.176;8.194;2023-04-05T10:33:03;7.10;99.90
18444;DHT22;9350;53.176;8.194;2023-04-05T10:35:37;7.10;99.90
18444;DHT22;9350;53.176;8.194;2023-04-05T10:38:23;7.20;99.90
18444;DHT22;9350;53.176;8.194;2023-04-05T10:40:53;7.10;99.90
18444;DHT22;9350;53.176;8.194;2023-04-05T10:43:22;7.20;99.90
18444;DHT22;9350;53.176;8.194;2023-04-05T10:45:52;7.20;99.90
18444;DHT22;9350;53.176;8.194;2023-04-05T10:48:32;7.30;99.90
18444;DHT22;9350;53.176;8.194;2023-04-05T10:51:00;7.30;99.90
18444;DHT22;9350;53.176;8.194;2023-04-05T10:53:29;7.30;99.90
18444;DHT22;9350;53.176;8.194;2023-04-05T10:55:57;7.30;99.90
18444;DHT22;9350;53.176;8.194;2023-04-05T10:58:24;7.40;99.90
18444;DHT22;9350;53.176;8.194;2023-04-05T11:00:52;7.40;99.90
18444;DHT22;9350;53.176;8.194;2023-04-05T11:03:46;7.40;99.90
18444;DHT22;9350;53.176;8.194;2023-04-05T11:06:23;7.40;99.90
18444;DHT22;9350;53.176;8.194;2023-04-05T11:08:53;7.50;99.90
18444;DHT22;9350;53.176;8.194;2023-04-05T11:11:22;7.60;99.90
18444;DHT22;9350;53.176;8.194;2023-04-05T11:13:51;7.70;99.90
18444;DHT22;9350;53.176;8.194;2023-04-05T11:16:18;7.80;99.90
18444;DHT22;9350;53.176;8.194;2023-04-05T11:18:47;7.80;99.90
18444;DHT22;9350;53.176;8.194;2023-04-05T11:21:22;7.80;99.90
18444;DHT22;9350;53.176;8.194;2023-04-05T11:24:00;7.80;99.90
18444;DHT22;9350;53.176;8.194;2023-04-05T11:26:32;7.80;99.90
18444;DHT22;9350;53.176;8.194;2023-04-05T11:28:58;7.80;99.90
18444;DHT22;9350;53.176;8.194;2023-04-05T11:31:25;7.90;99.90
18444;DHT22;9350;53.176;8.194;2023-04-05T11:33:58;7.90;99.90
18444;DHT22;9350;53.176;8.194;2023-04-05T11:36:38;8.00;99.90
18444;DHT22;9350;53.176;8.194;2023-04-05T11:39:33;8.00;99.90
18444;DHT22;9350;53.176;8.194;2023-04-05T11:42:03;8.00;99.90
18444;DHT22;9350;53.176;8.194;2023-04-05T11:44:39;8.00;99.90
18444;DHT22;9350;53.176;8.194;2023-04-05T11:47:06;8.10;99.90
18444;DHT22;9350;53.176;8.194;2023-04-05T11:49:35;8.10;99.90
18444;DHT22;9350;53.176;8.194;2023-04-05T11:52:10;8.00;99.90
18444;DHT22;9350;53.176;8.194;2023-04-05T11:54:37;8.10;99.90
18444;DHT22;9350;53.176;8.194;2023-04-05T11:57:04;8.10;99.90
18444;DHT22;9350;53.176;8.194;2023-04-05T11:59:32;8.20;99.90
18444;DHT22;9350;53.176;8.194;2023-04-05T12:02:00;8.30;99.90
18444;DHT22;9350;53.176;8.194;2023-04-05T12:04:28;8.30;99.90
18444;DHT22;9350;53.176;8.194;2023-04-05T12:07:15;8.40;99.90
18444;DHT22;9350;53.176;8.194;2023-04-05T12:09:57;8.30;99.90
18444;DHT22;9350;53.176;8.194;2023-04-05T12:12:24;8.40;99.90
18444;DHT22;9350;53.176;8.194;2023-04-05T12:14:50;8.40;99.90
18444;DHT22;9350;53.176;8.194;2023-04-05T12:17:17;8.30;99.90
18444;DHT22;9350;53.176;8.194;2023-04-05T12:19:44;8.30;99.90
18444;DHT22;9350;53.176;8.194;2023-04-05T12:22:12;8.40;99.90
18444;DHT22;9350;53.176;8.194;2023-04-05T12:24:39;8.50;99.90
18444;DHT22;9350;53.176;8.194;2023-04-05T12:27:07;8.60;99.90
18444;DHT22;9350;53.176;8.194;2023-04-05T12:29:34;8.60;99.90
18444;DHT22;9350;53.176;8.194;2023-04-05T12:32:00;8.60;99.90
18444;DHT22;9350;53.176;8.194;2023-04-05T12:34:28;8.60;99.90
18444;DHT22;9350;53.176;8.194;2023-04-05T12:36:55;8.60;99.90
18444;DHT22;9350;53.176;8.194;2023-04-05T12:39:28;8.60;99.90
18444;DHT22;9350;53.176;8.194;2023-04-05T12:41:55;8.60;99.90
18444;DHT22;9350;53.176;8.194;2023-04-05T12:44:27;8.70;99.90
18444;DHT22;9350;53.176;8.194;2023-04-05T12:47:00;8.70;99.90
18444;DHT22;9350;53.176;8.194;2023-04-05T12:49:27;8.70;99.90
18444;DHT22;9350;53.176;8.194;2023-04-05T12:51:59;8.70;99.90
18444;DHT22;9350;53.176;8.194;2023-04-05T12:54:28;8.70;99.90
18444;DHT22;9350;53.176;8.194;2023-04-05T12:56:56;8.70;99.90
18444;DHT22;9350;53.176;8.194;2023-04-05T12:59:23;8.70;99.90
18444;DHT22;9350;53.176;8.194;2023-04-05T13:01:50;8.70;99.90
18444;DHT22;9350;53.176;8.194;2023-04-05T13:04:16;8.70;99.90
18444;DHT22;9350;53.176;8.194;2023-04-05T13:06:43;8.70;99.90
18444;DHT22;9350;53.176;8.194;2023-04-05T13:09:11;8.80;99.90
18444;DHT22;9350;53.176;8.194;2023-04-05T13:11:39;8.80;99.90
18444;DHT22;9350;53.176;8.194;2023-04-05T13:14:06;8.90;99.90
18444;DHT22;9350;53.176;8.194;2023-04-05T13:16:33;8.80;99.90
18444;DHT22;9350;53.176;8.194;2023-04-05T13:18:59;8.80;99.90
18444;DHT22;9350;53.176;8.194;2023-04-05T13:21:26;8.90;99.90
18444;DHT22;9350;53.176;8.194;2023-04-05T13:23:53;9.00;99.90
18444;DHT22;9350;53.176;8.194;2023-04-05T13:26:20;9.00;99.90
18444;DHT22;9350;53.176;8.194;2023-04-05T13:28:48;9.10;99.90
18444;DHT22;9350;53.176;8.194;2023-04-05T13:31:14;9.20;99.90
18444;DHT22;9350;53.176;8.194;2023-04-05T13:33:41;9.10;99.90
18444;DHT22;9350;53.176;8.194;2023-04-05T13:36:08;9.00;99.90
18444;DHT22;9350;53.176;8.194;2023-04-05T13:38:36;9.00;99.90
18444;DHT22;9350;53.176;8.194;2023-04-05T13:41:03;9.00;99.90
18444;DHT22;9350;53.176;8.194;2023-04-05T13:43:30;8.90;99.90
18444;DHT22;9350;53.176;8.194;2023-04-05T13:45:58;8.90;99.90
18444;DHT22;9350;53.176;8.194;2023-04-05T13:48:25;8.90;99.90
18444;DHT22;9350;53.176;8.194;2023-04-05T13:50:51;9.00;99.90
18444;DHT22;9350;53.176;8.194;2023-04-05T13:53:18;8.90;99.90
18444;DHT22;9350;53.176;8.194;2023-04-05T13:55:45;8.90;99.90
18444;DHT22;9350;53.176;8.194;2023-04-05T13:58:11;9.00;99.90
18444;DHT22;9350;53.176;8.194;2023-04-05T14:00:38;8.80;99.90
18444;DHT22;9350;53.176;8.194;2023-04-05T14:03:06;8.70;99.90
18444;DHT22;9350;53.176;8.194;2023-04-05T14:05:33;8.70;99.90
18444;DHT22;9350;53.176;8.194;2023-04-05T14:08:00;8.70;99.90
18444;DHT22;9350;53.176;8.194;2023-04-05T14:10:26;8.70;99.90
18444;DHT22;9350;53.176;8.194;2023-04-05T14:12:53;8.80;99.90
18444;DHT22;9350;53.176;8.194;2023-04-05T14:15:20;8.90;99.90
18444;DHT22;9350;53.176;8.194;2023-04-05T14:17:47;8.90;99.90
18444;DHT22;9350;53.176;8.194;2023-04-05T14:20:15;9.00;99.90
18444;DHT22;9350;53.176;8.194;2023-04-05T14:22:42;9.10;99.90
18444;DHT22;9350;53.176;8.194;2023-04-05T14:25:09;9.10;99.90
18444;DHT22;9350;53.176;8.194;2023-04-05T14:27:35;9.30;99.90
18444;DHT22;9350;53.176;8.194;2023-04-05T14:30:07;9.20;99.90
18444;DHT22;9350;53.176;8.194;2023-04-05T14:32:35;9.20;99.90
18444;DHT22;9350;53.176;8.194;2023-04-05T14:35:02;9.20;99.90
18444;DHT22;9350;53.176;8.194;2023-04-05T14:37:30;9.40;99.90
18444;DHT22;9350;53.176;8.194;2023-04-05T14:39:57;9.40;99.90
18444;DHT22;9350;53.176;8.194;2023-04-05T14:42:24;9.40;99.90
18444;DHT22;9350;53.176;8.194;2023-04-05T14:44:50;9.40;99.90
18444;DHT22;9350;53.176;8.194;2023-04-05T14:47:17;9.40;99.90
18444;DHT22;9350;53.176;8.194;2023-04-05T14:49:44;9.40;99.90
18444;DHT22;9350;53.176;8.194;2023-04-05T14:52:11;9.40;99.90
18444;DHT22;9350;53.176;8.194;2023-04-05T14:54:39;9.40;99.90
18444;DHT22;9350;53.176;8.194;2023-04-05T14:57:06;9.40;99.90
18444;DHT22;9350;53.176;8.194;2023-04-05T14:59:33;9.40;99.90
18444;DHT22;9350;53.176;8.194;2023-04-05T15:02:00;9.40;99.90
18444;DHT22;9350;53.176;8.194;2023-04-05T15:04:27;9.30;99.90
18444;DHT22;9350;53.176;8.194;2023-04-05T15:06:54;9.30;99.90
18444;DHT22;9350;53.176;8.194;2023-04-05T15:09:21;9.30;99.90
18444;DHT22;9350;53.176;8.194;2023-04-05T15:11:49;9.50;99.90
18444;DHT22;9350;53.176;8.194;2023-04-05T15:14:16;9.50;99.90
18444;DHT22;9350;53.176;8.194;2023-04-05T15:16:43;9.50;99.90
18444;DHT22;9350;53.176;8.194;2023-04-05T15:19:09;9.50;99.90
18444;DHT22;9350;53.176;8.194;2023-04-05T15:21:36;9.50;99.90
18444;DHT22;9350;53.176;8.194;2023-04-05T15:24:05;9.40;99.90
18444;DHT22;9350;53.176;8.194;2023-04-05T15:26:31;9.40;99.90
18444;DHT22;9350;53.176;8.194;2023-04-05T15:28:59;9.50;99.90
18444;DHT22;9350;53.176;8.194;2023-04-05T15:31:27;9.50;99.90
18444;DHT22;9350;53.176;8.194;2023-04-05T15:33:53;9.50;99.90
18444;DHT22;9350;53.176;8.194;2023-04-05T15:36:21;9.60;99.90
18444;DHT22;9350;53.176;8.194;2023-04-05T15:38:49;9.60;99.90
18444;DHT22;9350;53.176;8.194;2023-04-05T15:41:16;9.60;99.90
18444;DHT22;9350;53.176;8.194;2023-04-05T15:43:43;9.70;99.90
18444;DHT22;9350;53.176;8.194;2023-04-05T15:46:11;9.60;99.90
18444;DHT22;9350;53.176;8.194;2023-04-05T15:48:38;9.70;99.90
18444;DHT22;9350;53.176;8.194;2023-04-05T15:51:04;9.70;99.90
18444;DHT22;9350;53.176;8.194;2023-04-05T15:53:31;9.70;99.90
18444;DHT22;9350;53.176;8.194;2023-04-05T15:55:58;9.70;99.90
18444;DHT22;9350;53.176;8.194;2023-04-05T15:58:25;9.60;99.90
18444;DHT22;9350;53.176;8.194;2023-04-05T16:00:51;9.60;99.90
18444;DHT22;9350;53.176;8.194;2023-04-05T16:03:19;9.50;99.90
18444;DHT22;9350;53.176;8.194;2023-04-05T16:05:46;9.60;99.90
18444;DHT22;9350;53.176;8.194;2023-04-05T16:08:13;9.60;99.90
18444;DHT22;9350;53.176;8.194;2023-04-05T16:10:40;9.60;99.90